Time;durP1;ratioP1;P1;durP2;ratioP2;P2;SDS_P1;SDS_P2;PMS_P1;PMS_P2;Temp;Humidity;BMP_temperature;BMP_pressure;BME280_temperature;BME280_humidity;BME280_pressure;Samples;Min_cycle;Max_cycle;Signal;HPM_P1;HPM_P2
2022/11/07 00:01:40;;;;;;;;;;;9.70;99.90;;;;;;5032692;28;19972;-62
2022/11/07 00:04:08;;;;;;;;;;;9.70;99.90;;;;;;5034993;28;20023;-62
2022/11/07 00:06:37;;;;;;;;;;;9.60;99.90;;;;;;5036905;28;20449;-62
2022/11/07 00:09:05;;;;;;;;;;;9.60;99.90;;;;;;5047199;28;20059;-62
2022/11/07 00:11:33;;;;;;;;;;;9.60;99.90;;;;;;5026428;28;19969;-62
2022/11/07 00:14:01;;;;;;;;;;;9.60;99.90;;;;;;5028447;28;19965;-62
2022/11/07 00:16:29;;;;;;;;;;;9.70;99.90;;;;;;5023816;28;19975;-62
2022/11/07 00:18:57;;;;;;;;;;;9.70;99.90;;;;;;5023994;28;20437;-62
2022/11/07 00:21:24;;;;;;;;;;;9.70;99.90;;;;;;5026591;28;21526;-63
2022/11/07 00:23:53;;;;;;;;;;;9.80;99.90;;;;;;5022636;28;19964;-62
2022/11/07 00:26:21;;;;;;;;;;;9.70;99.90;;;;;;5023165;28;19969;-63
2022/11/07 00:28:49;;;;;;;;;;;9.70;99.90;;;;;;5029454;28;19975;-63
2022/11/07 00:31:17;;;;;;;;;;;9.70;99.90;;;;;;5029043;28;19996;-63
2022/11/07 00:33:45;;;;;;;;;;;9.70;99.90;;;;;;5015289;28;19973;-62
2022/11/07 00:36:16;;;;;;;;;;;9.70;99.90;;;;;;5020867;28;19972;-63
2022/11/07 00:38:44;;;;;;;;;;;9.80;99.90;;;;;;5014988;28;19979;-63
2022/11/07 00:41:13;;;;;;;;;;;9.70;99.90;;;;;;5025983;28;20430;-61
2022/11/07 00:43:41;;;;;;;;;;;9.70;99.90;;;;;;5026042;28;19965;-62
2022/11/07 00:46:09;;;;;;;;;;;9.70;99.90;;;;;;5014671;28;19968;-62
2022/11/07 00:48:37;;;;;;;;;;;9.70;99.90;;;;;;5014958;28;19972;-63
2022/11/07 00:51:05;;;;;;;;;;;9.70;99.90;;;;;;5014333;28;19976;-62
2022/11/07 00:53:33;;;;;;;;;;;9.70;99.90;;;;;;5026046;28;19965;-62
2022/11/07 00:56:02;;;;;;;;;;;9.80;99.90;;;;;;5034246;28;19969;-62
2022/11/07 00:58:31;;;;;;;;;;;9.70;99.90;;;;;;5034695;28;19975;-62
2022/11/07 01:00:59;;;;;;;;;;;9.70;99.90;;;;;;5051024;28;20432;-62
2022/11/07 01:06:11;;;;;;;;;;;9.80;99.90;;;;;;5054279;28;20463;-62
2022/11/07 01:08:39;;;;;;;;;;;9.80;99.90;;;;;;5054340;28;19978;-62
2022/11/07 01:11:07;;;;;;;;;;;9.80;99.90;;;;;;5053556;28;19983;-63
2022/11/07 01:13:36;;;;;;;;;;;9.80;99.90;;;;;;5045498;28;19968;-63
2022/11/07 01:16:05;;;;;;;;;;;9.80;99.90;;;;;;5053977;28;20055;-62
2022/11/07 01:18:33;;;;;;;;;;;9.90;99.90;;;;;;5054069;28;20436;-63
2022/11/07 01:21:03;;;;;;;;;;;9.90;99.90;;;;;;5039362;28;19975;-63
2022/11/07 01:23:31;;;;;;;;;;;9.90;99.90;;;;;;5033722;28;19975;-61
2022/11/07 01:26:03;;;;;;;;;;;10.00;99.90;;;;;;5034010;28;19975;-63
2022/11/07 01:28:30;;;;;;;;;;;10.00;99.90;;;;;;5044376;28;19975;-62
2022/11/07 01:31:02;;;;;;;;;;;10.00;99.90;;;;;;5036186;28;20348;-62
2022/11/07 01:33:29;;;;;;;;;;;10.10;99.90;;;;;;5041185;28;19968;-62
2022/11/07 01:35:59;;;;;;;;;;;10.10;99.90;;;;;;5050558;28;19972;-62
2022/11/07 01:38:32;;;;;;;;;;;10.10;99.90;;;;;;5045986;28;19972;-63
2022/11/07 01:43:47;;;;;;;;;;;10.10;99.90;;;;;;5045022;28;20063;-63
2022/11/07 01:46:16;;;;;;;;;;;10.10;99.90;;;;;;5047520;28;19971;-63
2022/11/07 01:48:46;;;;;;;;;;;10.10;99.90;;;;;;5041409;28;19964;-63
2022/11/07 01:51:14;;;;;;;;;;;10.10;99.90;;;;;;5042192;28;19968;-63
2022/11/07 01:53:42;;;;;;;;;;;10.10;99.90;;;;;;5047924;28;19971;-63
2022/11/07 01:56:13;;;;;;;;;;;10.10;99.90;;;;;;5044538;28;19968;-63
2022/11/07 01:58:41;;;;;;;;;;;10.10;99.90;;;;;;5034216;28;19964;-63
2022/11/07 02:01:09;;;;;;;;;;;10.00;99.90;;;;;;5040221;28;19972;-63
2022/11/07 02:03:38;;;;;;;;;;;10.00;99.90;;;;;;5047127;28;19970;-63
2022/11/07 02:06:08;;;;;;;;;;;10.00;99.90;;;;;;5041108;28;19964;-63
2022/11/07 02:08:37;;;;;;;;;;;10.00;99.90;;;;;;5043561;28;19970;-63
2022/11/07 02:11:05;;;;;;;;;;;10.00;99.90;;;;;;5042864;28;19975;-63
2022/11/07 02:13:33;;;;;;;;;;;10.10;99.90;;;;;;5050672;28;19970;-63
2022/11/07 02:16:02;;;;;;;;;;;10.00;99.90;;;;;;5043760;28;19971;-63
2022/11/07 02:18:33;;;;;;;;;;;10.10;99.90;;;;;;5038719;28;19968;-63
2022/11/07 02:21:07;;;;;;;;;;;10.10;99.90;;;;;;5040143;28;20471;-63
2022/11/07 02:23:37;;;;;;;;;;;10.10;99.90;;;;;;5044328;28;19965;-63
2022/11/07 02:26:06;;;;;;;;;;;10.20;99.90;;;;;;5039257;28;19964;-63
2022/11/07 02:28:34;;;;;;;;;;;10.10;99.90;;;;;;5048236;28;20356;-63
2022/11/07 02:31:02;;;;;;;;;;;10.20;99.90;;;;;;5047641;28;20050;-63
2022/11/07 02:33:30;;;;;;;;;;;10.20;99.90;;;;;;5043711;28;20440;-62
2022/11/07 02:35:58;;;;;;;;;;;10.30;99.90;;;;;;5039468;28;19968;-62
2022/11/07 02:38:29;;;;;;;;;;;10.30;99.90;;;;;;5046863;28;20379;-63
2022/11/07 02:41:00;;;;;;;;;;;10.40;99.90;;;;;;5043841;28;20515;-62
2022/11/07 02:43:29;;;;;;;;;;;10.30;99.90;;;;;;5050471;28;19972;-62
2022/11/07 02:45:58;;;;;;;;;;;10.30;99.90;;;;;;5043760;28;19965;-62
2022/11/07 02:48:28;;;;;;;;;;;10.20;99.90;;;;;;5043749;28;19975;-63
2022/11/07 02:50:56;;;;;;;;;;;10.30;99.90;;;;;;5040309;28;19964;-63
2022/11/07 02:53:24;;;;;;;;;;;10.40;99.90;;;;;;5039063;28;19972;-63
2022/11/07 02:55:51;;;;;;;;;;;10.30;99.90;;;;;;5042173;28;19976;-62
2022/11/07 02:58:19;;;;;;;;;;;10.40;99.90;;;;;;5041166;28;19968;-63
2022/11/07 03:00:48;;;;;;;;;;;10.40;99.90;;;;;;5043570;28;20471;-63
2022/11/07 03:03:16;;;;;;;;;;;10.40;99.90;;;;;;5044907;28;19968;-63
2022/11/07 03:05:44;;;;;;;;;;;10.50;99.90;;;;;;5040163;28;19969;-63
2022/11/07 03:08:12;;;;;;;;;;;10.40;99.90;;;;;;5041698;28;20451;-62
2022/11/07 03:10:39;;;;;;;;;;;10.40;99.90;;;;;;5042826;28;19968;-62
2022/11/07 03:13:08;;;;;;;;;;;10.40;99.90;;;;;;5048569;28;19978;-63
2022/11/07 03:15:36;;;;;;;;;;;10.30;99.90;;;;;;5042339;28;19972;-62
2022/11/07 03:18:05;;;;;;;;;;;10.30;99.90;;;;;;5042299;28;20461;-63
2022/11/07 03:20:33;;;;;;;;;;;10.30;99.90;;;;;;5042175;28;19964;-63
2022/11/07 03:23:00;;;;;;;;;;;10.30;99.90;;;;;;5041899;28;20463;-62
2022/11/07 03:25:28;;;;;;;;;;;10.30;99.90;;;;;;5031698;28;19987;-62
2022/11/07 03:27:56;;;;;;;;;;;10.40;99.90;;;;;;5037911;28;19964;-63
2022/11/07 03:30:24;;;;;;;;;;;10.40;99.90;;;;;;5046744;28;20353;-63
2022/11/07 03:32:52;;;;;;;;;;;10.50;99.90;;;;;;5036963;28;19968;-63
2022/11/07 03:35:21;;;;;;;;;;;10.50;99.90;;;;;;5043475;28;20008;-63
2022/11/07 03:37:49;;;;;;;;;;;10.50;99.90;;;;;;5039825;28;19975;-63
2022/11/07 03:40:17;;;;;;;;;;;10.50;99.90;;;;;;5045880;28;19969;-63
2022/11/07 03:42:45;;;;;;;;;;;10.40;99.90;;;;;;5042855;28;19965;-62
2022/11/07 03:45:13;;;;;;;;;;;10.50;99.90;;;;;;5046534;28;19968;-62
2022/11/07 03:48:01;;;;;;;;;;;10.50;99.90;;;;;;5054714;28;19972;-62
2022/11/07 03:50:30;;;;;;;;;;;10.40;99.90;;;;;;5043349;28;19972;-62
2022/11/07 03:52:58;;;;;;;;;;;10.30;99.90;;;;;;5046838;28;20570;-63
2022/11/07 03:55:26;;;;;;;;;;;10.30;99.90;;;;;;5044916;28;19968;-63
2022/11/07 03:57:53;;;;;;;;;;;10.20;99.90;;;;;;5045283;28;19978;-63
2022/11/07 04:00:22;;;;;;;;;;;10.20;99.90;;;;;;5043828;28;19968;-63
2022/11/07 04:02:50;;;;;;;;;;;10.20;99.90;;;;;;5044729;28;19964;-63
2022/11/07 04:05:18;;;;;;;;;;;10.20;99.90;;;;;;5048622;28;19964;-63
2022/11/07 04:07:47;;;;;;;;;;;10.20;99.90;;;;;;5042361;28;19971;-62
2022/11/07 04:10:14;;;;;;;;;;;10.20;99.90;;;;;;5045285;28;19975;-63
2022/11/07 04:18:14;;;;;;;;;;;10.30;99.90;;;;;;5044491;28;19974;-63
2022/11/07 04:20:41;;;;;;;;;;;10.30;99.90;;;;;;5048910;28;19971;-63
2022/11/07 04:23:11;;;;;;;;;;;10.40;99.90;;;;;;5038812;28;19983;-63
2022/11/07 04:28:24;;;;;;;;;;;10.30;99.90;;;;;;5039468;28;20459;-63
2022/11/07 04:30:52;;;;;;;;;;;10.30;99.90;;;;;;5042953;28;19964;-63
2022/11/07 04:33:20;;;;;;;;;;;10.30;99.90;;;;;;5043416;28;19968;-63
2022/11/07 04:35:47;;;;;;;;;;;10.30;99.90;;;;;;5040062;28;19975;-63
2022/11/07 04:38:16;;;;;;;;;;;10.30;99.90;;;;;;5045520;28;19975;-63
2022/11/07 04:40:44;;;;;;;;;;;10.30;99.90;;;;;;5044156;28;20315;-63
2022/11/07 04:43:12;;;;;;;;;;;10.30;99.90;;;;;;5045910;28;19974;-62
2022/11/07 04:45:40;;;;;;;;;;;10.40;99.90;;;;;;5042238;28;19965;-62
2022/11/07 04:48:09;;;;;;;;;;;10.50;99.90;;;;;;5044138;28;19979;-63
2022/11/07 04:50:37;;;;;;;;;;;10.50;99.90;;;;;;5040427;28;19971;-63
2022/11/07 04:53:05;;;;;;;;;;;10.60;99.90;;;;;;5044622;28;19979;-63
2022/11/07 04:55:34;;;;;;;;;;;10.50;99.90;;;;;;5037830;28;19972;-63
2022/11/07 04:58:02;;;;;;;;;;;10.50;99.90;;;;;;5045215;28;20460;-63
2022/11/07 05:00:29;;;;;;;;;;;10.60;99.90;;;;;;5042026;28;20482;-62
2022/11/07 05:02:57;;;;;;;;;;;10.60;99.90;;;;;;5045763;28;19964;-62
2022/11/07 05:05:25;;;;;;;;;;;10.60;99.90;;;;;;5042947;28;20676;-63
2022/11/07 05:07:53;;;;;;;;;;;10.60;99.90;;;;;;5052927;28;19975;-62
2022/11/07 05:10:22;;;;;;;;;;;10.60;99.90;;;;;;5043226;28;19974;-62
2022/11/07 05:12:51;;;;;;;;;;;10.60;99.90;;;;;;5044103;28;19978;-62
2022/11/07 05:15:19;;;;;;;;;;;10.60;99.90;;;;;;5052714;28;19968;-63
2022/11/07 05:17:47;;;;;;;;;;;10.60;99.90;;;;;;5043656;28;19970;-63
2022/11/07 05:20:22;;;;;;;;;;;10.60;99.90;;;;;;5043899;28;19968;-63
2022/11/07 05:25:35;;;;;;;;;;;10.60;99.90;;;;;;5052841;28;19980;-62
2022/11/07 05:28:04;;;;;;;;;;;10.50;99.90;;;;;;5052545;28;19971;-62
2022/11/07 05:30:32;;;;;;;;;;;10.60;99.90;;;;;;5043445;28;19979;-63
2022/11/07 05:33:00;;;;;;;;;;;10.60;99.90;;;;;;5047483;28;20471;-63
2022/11/07 05:35:28;;;;;;;;;;;10.60;99.90;;;;;;5041645;28;20063;-63
2022/11/07 05:37:55;;;;;;;;;;;10.70;99.90;;;;;;5040397;28;19971;-62
2022/11/07 05:40:23;;;;;;;;;;;10.70;99.90;;;;;;5040200;28;20329;-61
2022/11/07 05:42:51;;;;;;;;;;;10.70;99.90;;;;;;5045695;28;20580;-62
2022/11/07 05:45:20;;;;;;;;;;;10.70;99.90;;;;;;5033603;28;19983;-62
2022/11/07 05:47:47;;;;;;;;;;;10.80;99.90;;;;;;5028755;28;19972;-62
2022/11/07 05:50:15;;;;;;;;;;;10.80;99.90;;;;;;5029967;28;20019;-62
2022/11/07 05:52:43;;;;;;;;;;;10.80;99.90;;;;;;5030222;28;19980;-62
2022/11/07 05:55:11;;;;;;;;;;;10.80;99.90;;;;;;5029279;28;19976;-62
2022/11/07 05:57:39;;;;;;;;;;;10.80;99.90;;;;;;5027299;28;19980;-63
2022/11/07 06:00:07;;;;;;;;;;;10.80;99.90;;;;;;5024099;28;19979;-63
2022/11/07 06:02:36;;;;;;;;;;;10.90;99.90;;;;;;5037925;23;20777;-69
2022/11/07 06:05:04;;;;;;;;;;;10.90;99.90;;;;;;5020312;28;19973;-68
2022/11/07 06:07:34;;;;;;;;;;;11.00;99.90;;;;;;5021385;28;19983;-69
2022/11/07 06:10:01;;;;;;;;;;;11.00;99.90;;;;;;5017379;28;19965;-70
2022/11/07 06:12:29;;;;;;;;;;;11.00;99.90;;;;;;5019187;28;19979;-69
2022/11/07 06:14:57;;;;;;;;;;;11.00;99.90;;;;;;5019931;28;19971;-67
2022/11/07 06:17:24;;;;;;;;;;;11.00;99.90;;;;;;5020496;28;19984;-68
2022/11/07 06:19:54;;;;;;;;;;;11.00;99.90;;;;;;5018835;28;20107;-67
2022/11/07 06:22:23;;;;;;;;;;;11.00;99.90;;;;;;5020183;28;19979;-68
2022/11/07 06:24:51;;;;;;;;;;;11.00;99.90;;;;;;5017068;28;19973;-66
2022/11/07 06:27:18;;;;;;;;;;;11.00;99.90;;;;;;5019485;28;20319;-68
2022/11/07 06:29:46;;;;;;;;;;;11.10;99.90;;;;;;5019282;28;19968;-71
2022/11/07 06:32:14;;;;;;;;;;;11.10;99.90;;;;;;5019486;28;19980;-68
2022/11/07 06:34:41;;;;;;;;;;;11.10;99.90;;;;;;5019021;28;19976;-68
2022/11/07 06:37:11;;;;;;;;;;;11.10;99.90;;;;;;5017529;28;21160;-69
2022/11/07 06:39:38;;;;;;;;;;;11.10;99.90;;;;;;5019388;28;19972;-69
2022/11/07 06:42:06;;;;;;;;;;;11.10;99.90;;;;;;5016702;28;19979;-69
2022/11/07 06:44:33;;;;;;;;;;;11.10;99.90;;;;;;5017159;28;19973;-68
2022/11/07 06:47:01;;;;;;;;;;;11.20;99.90;;;;;;5017948;28;19968;-69
2022/11/07 06:49:29;;;;;;;;;;;11.10;99.90;;;;;;5020546;28;19971;-69
2022/11/07 06:51:57;;;;;;;;;;;11.10;99.90;;;;;;5016569;28;19965;-69
2022/11/07 06:54:26;;;;;;;;;;;11.00;99.90;;;;;;5018719;28;19976;-69
2022/11/07 06:56:53;;;;;;;;;;;11.00;99.90;;;;;;5019186;28;19976;-69
2022/11/07 06:59:21;;;;;;;;;;;11.10;99.90;;;;;;5018660;28;19975;-69
2022/11/07 07:01:49;;;;;;;;;;;11.10;99.90;;;;;;5015767;28;19987;-71
2022/11/07 07:04:17;;;;;;;;;;;11.10;99.90;;;;;;5019078;28;19982;-72
2022/11/07 07:06:45;;;;;;;;;;;11.10;99.90;;;;;;5018327;28;19973;-71
2022/11/07 07:09:13;;;;;;;;;;;11.10;99.90;;;;;;5020551;28;21999;-72
2022/11/07 07:11:43;;;;;;;;;;;11.10;99.90;;;;;;5016978;28;20921;-71
2022/11/07 07:14:11;;;;;;;;;;;11.10;99.90;;;;;;5018430;28;19984;-71
2022/11/07 07:16:39;;;;;;;;;;;11.10;99.90;;;;;;5018683;28;19973;-71
2022/11/07 07:19:07;;;;;;;;;;;11.10;99.90;;;;;;5018211;28;19973;-71
2022/11/07 07:21:34;;;;;;;;;;;11.20;99.90;;;;;;5015367;28;19978;-72
2022/11/07 07:24:02;;;;;;;;;;;11.10;99.90;;;;;;5017380;28;19964;-72
2022/11/07 07:26:30;;;;;;;;;;;11.20;99.90;;;;;;5018467;28;19979;-72
2022/11/07 07:28:59;;;;;;;;;;;11.20;99.90;;;;;;5017714;28;19964;-72
2022/11/07 07:31:29;;;;;;;;;;;11.20;99.90;;;;;;5024901;28;19971;-69
2022/11/07 07:33:57;;;;;;;;;;;11.20;99.90;;;;;;5030709;28;19965;-72
2022/11/07 07:36:25;;;;;;;;;;;11.30;99.90;;;;;;5030884;28;19979;-72
2022/11/07 07:38:53;;;;;;;;;;;11.20;99.90;;;;;;5031746;28;19969;-72
2022/11/07 07:41:20;;;;;;;;;;;11.20;99.90;;;;;;5031335;28;20461;-71
2022/11/07 07:43:48;;;;;;;;;;;11.20;99.90;;;;;;5031573;28;19995;-69
2022/11/07 07:46:19;;;;;;;;;;;11.20;99.90;;;;;;5014478;28;19975;-72
2022/11/07 07:48:46;;;;;;;;;;;11.20;99.90;;;;;;5011886;28;19969;-72
2022/11/07 07:51:14;;;;;;;;;;;11.30;99.90;;;;;;5012043;28;19973;-72
2022/11/07 07:53:42;;;;;;;;;;;11.30;99.90;;;;;;5011947;28;20446;-72
2022/11/07 07:56:10;;;;;;;;;;;11.40;99.90;;;;;;5011976;28;20019;-68
2022/11/07 07:58:37;;;;;;;;;;;11.40;99.90;;;;;;5011657;28;19981;-71
2022/11/07 08:01:09;;;;;;;;;;;11.50;99.90;;;;;;5011658;28;19979;-71
2022/11/07 08:03:38;;;;;;;;;;;11.50;99.90;;;;;;5011597;28;20426;-72
2022/11/07 08:06:26;;;;;;;;;;;11.60;99.90;;;;;;5011686;28;20438;-71
2022/11/07 08:08:53;;;;;;;;;;;11.60;99.90;;;;;;5011904;28;19968;-72
2022/11/07 08:11:21;;;;;;;;;;;11.60;99.90;;;;;;5011556;28;20008;-72
2022/11/07 08:13:49;;;;;;;;;;;11.70;99.90;;;;;;5027246;28;20055;-71
2022/11/07 08:16:17;;;;;;;;;;;11.70;99.90;;;;;;5017906;28;19968;-71
2022/11/07 08:18:46;;;;;;;;;;;11.70;99.90;;;;;;5015526;28;19969;-71
2022/11/07 08:21:13;;;;;;;;;;;11.80;99.90;;;;;;5015220;28;19969;-71
2022/11/07 08:23:41;;;;;;;;;;;11.80;99.90;;;;;;5015471;28;19968;-71
2022/11/07 08:26:09;;;;;;;;;;;11.90;99.90;;;;;;5015425;28;20051;-71
2022/11/07 08:28:37;;;;;;;;;;;12.00;99.90;;;;;;5015196;28;19975;-72
2022/11/07 08:31:06;;;;;;;;;;;12.10;99.90;;;;;;5014941;28;19975;-71
2022/11/07 08:33:34;;;;;;;;;;;12.10;99.90;;;;;;5014922;28;20067;-72
2022/11/07 08:36:04;;;;;;;;;;;12.20;99.90;;;;;;5014830;28;20360;-72
2022/11/07 08:38:32;;;;;;;;;;;12.20;99.90;;;;;;5014800;28;20315;-72
2022/11/07 08:41:00;;;;;;;;;;;12.30;99.90;;;;;;5014945;28;20353;-71
2022/11/07 08:43:28;;;;;;;;;;;12.30;99.90;;;;;;5026051;28;20071;-71
2022/11/07 08:45:56;;;;;;;;;;;12.40;99.90;;;;;;5020471;28;20536;-70
2022/11/07 08:48:23;;;;;;;;;;;12.40;99.90;;;;;;5014853;28;19972;-71
2022/11/07 08:50:52;;;;;;;;;;;12.50;99.90;;;;;;5014597;28;20445;-71
2022/11/07 08:53:22;;;;;;;;;;;12.50;99.90;;;;;;5014800;28;19969;-72
2022/11/07 08:55:50;;;;;;;;;;;12.60;99.90;;;;;;5014671;28;20071;-72
2022/11/07 08:58:18;;;;;;;;;;;12.60;99.90;;;;;;5014576;28;19980;-71
2022/11/07 09:00:45;;;;;;;;;;;12.70;99.90;;;;;;5014351;28;19973;-71
2022/11/07 09:03:13;;;;;;;;;;;12.70;99.90;;;;;;5014192;28;20019;-72
2022/11/07 09:06:01;;;;;;;;;;;12.80;99.90;;;;;;5014435;28;19969;-71
2022/11/07 09:08:31;;;;;;;;;;;12.90;99.90;;;;;;5014365;28;20448;-69
2022/11/07 09:11:02;;;;;;;;;;;12.90;99.90;;;;;;5014171;28;19975;-71
2022/11/07 09:13:30;;;;;;;;;;;12.80;99.90;;;;;;5025688;28;20422;-72
2022/11/07 09:15:59;;;;;;;;;;;12.80;99.90;;;;;;5033916;28;19972;-72
2022/11/07 09:18:27;;;;;;;;;;;12.70;99.90;;;;;;5034087;28;20441;-71
2022/11/07 09:20:55;;;;;;;;;;;12.60;99.90;;;;;;5033828;28;20461;-72
2022/11/07 09:23:22;;;;;;;;;;;12.60;99.90;;;;;;5033981;28;19978;-72
2022/11/07 09:25:51;;;;;;;;;;;12.70;99.90;;;;;;5033024;28;19968;-73
2022/11/07 09:28:19;;;;;;;;;;;12.60;99.90;;;;;;5033815;28;20004;-72
2022/11/07 09:30:47;;;;;;;;;;;12.60;99.90;;;;;;5033390;28;19969;-69
2022/11/07 09:33:15;;;;;;;;;;;12.60;99.90;;;;;;5033672;28;20063;-71
2022/11/07 09:35:43;;;;;;;;;;;12.70;99.90;;;;;;5033709;28;19996;-72
2022/11/07 09:38:10;;;;;;;;;;;12.70;99.90;;;;;;5033455;28;20071;-71
2022/11/07 09:40:42;;;;;;;;;;;12.70;99.90;;;;;;5033227;28;19969;-72
2022/11/07 09:43:17;;;;;;;;;;;12.70;99.90;;;;;;5033351;28;19969;-72
2022/11/07 09:45:51;;;;;;;;;;;12.70;99.90;;;;;;5026743;28;19969;-69
2022/11/07 09:48:22;;;;;;;;;;;12.70;99.90;;;;;;5033503;28;19968;-71
2022/11/07 09:50:50;;;;;;;;;;;12.70;99.90;;;;;;5033268;28;19975;-72
2022/11/07 09:53:22;;;;;;;;;;;12.80;99.90;;;;;;5033356;28;19969;-68
2022/11/07 09:55:51;;;;;;;;;;;12.90;99.90;;;;;;5033511;28;19974;-71
2022/11/07 09:58:25;;;;;;;;;;;12.90;99.90;;;;;;5032937;28;19969;-72
2022/11/07 10:00:54;;;;;;;;;;;13.00;99.90;;;;;;5032813;28;19968;-72
2022/11/07 10:03:22;;;;;;;;;;;13.10;99.90;;;;;;5032976;28;19969;-71
2022/11/07 10:05:54;;;;;;;;;;;13.10;99.90;;;;;;5033251;28;19972;-72
2022/11/07 10:08:24;;;;;;;;;;;13.20;99.90;;;;;;5033102;28;19973;-71
2022/11/07 10:10:54;;;;;;;;;;;13.30;99.90;;;;;;5032895;28;20045;-72
2022/11/07 10:13:49;;;;;;;;;;;13.30;99.90;;;;;;5032822;28;19975;-72
2022/11/07 10:16:24;;;;;;;;;;;13.40;99.90;;;;;;4997435;28;20074;-72
2022/11/07 10:18:58;;;;;;;;;;;13.50;99.90;;;;;;5032931;28;19967;-72
2022/11/07 10:21:30;;;;;;;;;;;13.50;99.90;;;;;;5032889;28;20058;-71
2022/11/07 10:24:16;;;;;;;;;;;13.40;99.90;;;;;;5033006;28;19969;-71
2022/11/07 10:26:44;;;;;;;;;;;13.40;99.90;;;;;;5032597;28;20067;-71
2022/11/07 10:29:13;;;;;;;;;;;13.30;99.90;;;;;;5032672;28;19968;-71
2022/11/07 10:31:44;;;;;;;;;;;13.30;99.90;;;;;;5032907;28;19975;-71
2022/11/07 10:34:15;;;;;;;;;;;13.30;99.90;;;;;;5032701;28;20426;-71
2022/11/07 10:36:42;;;;;;;;;;;13.20;99.90;;;;;;5032326;28;20071;-71
2022/11/07 10:39:14;;;;;;;;;;;13.20;99.90;;;;;;5032407;28;19972;-71
2022/11/07 10:41:43;;;;;;;;;;;13.30;99.90;;;;;;5032538;28;20070;-72
2022/11/07 10:44:13;;;;;;;;;;;13.20;99.90;;;;;;5031384;28;19969;-71
2022/11/07 10:46:43;;;;;;;;;;;13.20;99.90;;;;;;5030237;28;20018;-71
2022/11/07 10:49:17;;;;;;;;;;;13.20;99.90;;;;;;5032403;28;19968;-71
2022/11/07 10:51:45;;;;;;;;;;;13.30;99.90;;;;;;5032128;28;19968;-71
2022/11/07 10:54:19;;;;;;;;;;;13.30;99.90;;;;;;5032520;28;19976;-71
2022/11/07 10:56:49;;;;;;;;;;;13.30;99.90;;;;;;5032078;28;19971;-71
2022/11/07 10:59:25;;;;;;;;;;;13.30;99.90;;;;;;5032547;28;19973;-68
2022/11/07 11:02:03;;;;;;;;;;;13.30;99.90;;;;;;5032062;28;19970;-71
2022/11/07 11:04:31;;;;;;;;;;;13.30;99.90;;;;;;5032196;28;20014;-72
2022/11/07 11:07:01;;;;;;;;;;;13.30;99.90;;;;;;5031825;28;19975;-72
2022/11/07 11:09:30;;;;;;;;;;;13.40;99.90;;;;;;5032107;28;19979;-71
2022/11/07 11:11:58;;;;;;;;;;;13.40;99.90;;;;;;5031866;28;20368;-71
2022/11/07 11:14:25;;;;;;;;;;;13.50;99.90;;;;;;5031799;28;20464;-73
2022/11/07 11:16:54;;;;;;;;;;;13.50;99.90;;;;;;5031608;28;20357;-69
2022/11/07 11:19:24;;;;;;;;;;;13.50;99.90;;;;;;5032161;28;20007;-71
2022/11/07 11:21:54;;;;;;;;;;;13.60;99.90;;;;;;5031771;28;19980;-71
2022/11/07 11:24:32;;;;;;;;;;;13.60;99.90;;;;;;5032076;28;20345;-71
2022/11/07 11:27:01;;;;;;;;;;;13.70;99.90;;;;;;5031674;28;20018;-70
2022/11/07 11:29:32;;;;;;;;;;;13.70;99.90;;;;;;5031725;28;19968;-73
2022/11/07 11:32:11;;;;;;;;;;;13.80;99.90;;;;;;5032075;28;20404;-71
2022/11/07 11:34:45;;;;;;;;;;;13.80;99.90;;;;;;5031909;28;19973;-71
2022/11/07 11:37:15;;;;;;;;;;;13.90;99.90;;;;;;5031627;28;19972;-72
2022/11/07 11:39:45;;;;;;;;;;;13.90;99.90;;;;;;5031427;28;19975;-71
2022/11/07 11:42:18;;;;;;;;;;;14.00;99.90;;;;;;5031685;28;20059;-70
2022/11/07 11:44:46;;;;;;;;;;;14.10;99.90;;;;;;5031398;28;19964;-70
2022/11/07 11:47:16;;;;;;;;;;;14.10;99.90;;;;;;5032419;28;20073;-72
2022/11/07 11:49:47;;;;;;;;;;;14.20;99.90;;;;;;5035872;28;20026;-70
2022/11/07 11:52:16;;;;;;;;;;;14.10;99.90;;;;;;5036491;28;19979;-68
2022/11/07 11:54:44;;;;;;;;;;;14.10;99.90;;;;;;5035892;28;19973;-71
2022/11/07 11:57:15;;;;;;;;;;;14.10;99.90;;;;;;5035677;28;19972;-71
2022/11/07 12:00:01;;;;;;;;;;;14.00;99.90;;;;;;5036034;28;19977;-71
2022/11/07 12:02:41;;;;;;;;;;;14.00;99.90;;;;;;5035252;28;19995;-70
2022/11/07 12:05:19;;;;;;;;;;;14.00;99.90;;;;;;4973051;28;19973;-63
2022/11/07 12:07:52;;;;;;;;;;;14.00;99.90;;;;;;4976597;28;20379;-63
2022/11/07 12:10:25;;;;;;;;;;;14.00;99.90;;;;;;4976468;28;19976;-63
2022/11/07 12:12:57;;;;;;;;;;;14.00;99.90;;;;;;4976415;28;19965;-63
2022/11/07 12:15:34;;;;;;;;;;;14.00;99.90;;;;;;4976219;28;20064;-63
2022/11/07 12:18:05;;;;;;;;;;;14.00;99.90;;;;;;4976808;28;19980;-63
2022/11/07 12:20:37;;;;;;;;;;;14.10;99.90;;;;;;4976124;28;20496;-63
2022/11/07 12:23:18;;;;;;;;;;;14.10;99.90;;;;;;4995391;28;19976;-63
2022/11/07 12:25:50;;;;;;;;;;;14.30;99.90;;;;;;4995794;28;19969;-63
2022/11/07 12:28:29;;;;;;;;;;;14.20;99.90;;;;;;4995782;28;19976;-63
2022/11/07 12:31:02;;;;;;;;;;;14.20;99.90;;;;;;4995540;28;19985;-63
2022/11/07 12:33:33;;;;;;;;;;;14.10;99.90;;;;;;4995649;28;19968;-63
2022/11/07 12:36:05;;;;;;;;;;;14.10;99.90;;;;;;4995665;28;20370;-63
2022/11/07 12:38:57;;;;;;;;;;;14.00;99.90;;;;;;4996045;28;19980;-64
2022/11/07 12:41:33;;;;;;;;;;;14.10;99.90;;;;;;4980591;28;19977;-62
2022/11/07 12:44:06;;;;;;;;;;;14.00;99.90;;;;;;4988512;28;20075;-62
2022/11/07 12:46:42;;;;;;;;;;;14.00;99.90;;;;;;4994886;28;19969;-62
2022/11/07 12:49:15;;;;;;;;;;;14.00;99.90;;;;;;4995329;28;19975;-62
2022/11/07 12:51:47;;;;;;;;;;;14.00;99.90;;;;;;4995262;28;20063;-63
2022/11/07 12:54:27;;;;;;;;;;;14.00;99.90;;;;;;4994991;28;19975;-63
2022/11/07 12:56:56;;;;;;;;;;;13.90;99.90;;;;;;4995273;28;19973;-63
2022/11/07 12:59:25;;;;;;;;;;;13.90;99.90;;;;;;4994531;28;19969;-63
2022/11/07 13:01:59;;;;;;;;;;;13.90;99.90;;;;;;4994113;28;20414;-63
2022/11/07 13:04:30;;;;;;;;;;;14.00;99.90;;;;;;4994828;28;19973;-63
2022/11/07 13:07:02;;;;;;;;;;;14.00;99.90;;;;;;4995136;28;20085;-63
2022/11/07 13:09:32;;;;;;;;;;;14.00;99.90;;;;;;4994787;28;20369;-63
2022/11/07 13:12:05;;;;;;;;;;;14.00;99.90;;;;;;4995141;28;19979;-63
2022/11/07 13:14:35;;;;;;;;;;;14.00;99.90;;;;;;4985887;28;19973;-63
2022/11/07 13:17:12;;;;;;;;;;;14.00;99.90;;;;;;4994964;28;20047;-63
2022/11/07 13:19:41;;;;;;;;;;;14.00;99.90;;;;;;4994641;28;19984;-63
2022/11/07 13:22:21;;;;;;;;;;;14.00;99.90;;;;;;4994681;28;19973;-64
2022/11/07 13:24:53;;;;;;;;;;;14.00;99.90;;;;;;4994621;28;19968;-64
2022/11/07 13:27:22;;;;;;;;;;;14.00;99.90;;;;;;4994736;28;19993;-65
2022/11/07 13:29:50;;;;;;;;;;;14.00;99.90;;;;;;4994487;28;19976;-64
2022/11/07 13:32:18;;;;;;;;;;;13.90;99.90;;;;;;4994539;28;19968;-64
2022/11/07 13:34:53;;;;;;;;;;;14.00;99.90;;;;;;4994590;28;20343;-64
2022/11/07 13:37:24;;;;;;;;;;;14.00;99.90;;;;;;4994611;28;19975;-63
2022/11/07 13:39:54;;;;;;;;;;;14.00;99.90;;;;;;4994244;28;19973;-64
2022/11/07 13:42:23;;;;;;;;;;;14.10;99.90;;;;;;4994070;28;19969;-65
2022/11/07 13:44:53;;;;;;;;;;;14.00;99.90;;;;;;4985928;28;19972;-64
2022/11/07 13:47:24;;;;;;;;;;;14.00;99.90;;;;;;4994186;28;20072;-63
2022/11/07 13:49:55;;;;;;;;;;;14.00;99.90;;;;;;4994170;28;19969;-64
2022/11/07 13:52:27;;;;;;;;;;;14.10;99.90;;;;;;4993993;28;20053;-64
2022/11/07 13:54:57;;;;;;;;;;;14.10;99.90;;;;;;4994176;28;19969;-64
2022/11/07 13:57:27;;;;;;;;;;;14.00;99.90;;;;;;4993824;28;19973;-64
2022/11/07 13:59:57;;;;;;;;;;;14.00;99.90;;;;;;4994127;28;19993;-63
2022/11/07 14:02:27;;;;;;;;;;;14.10;99.90;;;;;;4993975;28;19973;-62
2022/11/07 14:04:56;;;;;;;;;;;14.10;99.90;;;;;;4994030;28;20443;-64
2022/11/07 14:07:49;;;;;;;;;;;14.10;99.90;;;;;;4993639;28;19973;-64
2022/11/07 14:10:21;;;;;;;;;;;14.10;99.90;;;;;;4993455;28;20323;-64
2022/11/07 14:12:51;;;;;;;;;;;14.10;99.90;;;;;;4993459;28;20382;-64
2022/11/07 14:15:18;;;;;;;;;;;14.10;99.90;;;;;;4985691;28;20456;-64
2022/11/07 14:17:46;;;;;;;;;;;14.10;99.90;;;;;;4993707;28;19968;-63
2022/11/07 14:20:15;;;;;;;;;;;14.10;99.90;;;;;;4993674;28;19976;-64
2022/11/07 14:22:52;;;;;;;;;;;14.10;99.90;;;;;;4993293;28;19976;-64
2022/11/07 14:25:24;;;;;;;;;;;14.10;99.90;;;;;;4993751;28;19969;-64
2022/11/07 14:27:52;;;;;;;;;;;14.00;99.90;;;;;;4993544;28;19973;-64
2022/11/07 14:30:21;;;;;;;;;;;14.00;99.90;;;;;;4993229;28;19973;-64
2022/11/07 14:32:50;;;;;;;;;;;13.90;99.90;;;;;;4993690;28;19975;-63
2022/11/07 14:35:19;;;;;;;;;;;13.90;99.90;;;;;;4993364;28;19979;-64
2022/11/07 14:37:47;;;;;;;;;;;13.90;99.90;;;;;;4993303;28;19977;-64
2022/11/07 14:40:16;;;;;;;;;;;13.90;99.90;;;;;;4993289;28;20063;-64
2022/11/07 14:42:44;;;;;;;;;;;13.90;99.90;;;;;;4992927;28;20466;-62
2022/11/07 14:45:14;;;;;;;;;;;13.90;99.90;;;;;;4985051;28;19992;-64
2022/11/07 14:47:41;;;;;;;;;;;13.90;99.90;;;;;;4993179;28;20365;-64
2022/11/07 14:50:11;;;;;;;;;;;13.90;99.90;;;;;;4992880;28;19969;-64